createdAt,value
2019-03-19T00:00:38.156Z,14.17
2019-03-19T00:03:07.661Z,14.16
2019-03-19T00:05:37.192Z,14.15
2019-03-19T00:08:06.753Z,14.17
2019-03-19T00:10:36.298Z,14.16
2019-03-19T00:13:05.784Z,14.17
2019-03-19T00:15:35.265Z,14.13
2019-03-19T00:18:04.735Z,14.10
2019-03-19T00:20:34.227Z,14.04
2019-03-19T00:23:03.736Z,14.01
2019-03-19T00:25:33.226Z,13.95
2019-03-19T00:28:02.699Z,13.92
2019-03-19T00:30:32.235Z,13.85
2019-03-19T00:33:01.756Z,13.81
2019-03-19T00:35:31.262Z,13.71
2019-03-19T00:38:00.770Z,13.62
2019-03-19T00:40:30.277Z,13.56
2019-03-19T00:42:59.784Z,13.48
2019-03-19T00:45:29.253Z,13.38
2019-03-19T00:47:58.757Z,13.28
2019-03-19T00:50:28.249Z,13.21
2019-03-19T00:52:57.766Z,13.20
2019-03-19T00:55:27.248Z,13.09
2019-03-19T00:57:56.758Z,13.01
2019-03-19T01:00:26.280Z,12.89
2019-03-19T01:02:55.839Z,12.82
2019-03-19T01:05:25.322Z,12.72
2019-03-19T01:07:54.830Z,12.62
2019-03-19T01:10:24.441Z,12.49
2019-03-19T01:12:53.990Z,12.42
2019-03-19T01:15:23.466Z,12.32
2019-03-19T01:17:53.007Z,12.24
2019-03-19T01:20:22.507Z,12.18
2019-03-19T01:22:52.038Z,12.15
2019-03-19T01:25:21.552Z,12.09
2019-03-19T01:27:51.088Z,12.01
2019-03-19T01:30:20.670Z,11.88
2019-03-19T01:32:50.176Z,11.80
2019-03-19T01:35:19.697Z,11.76
2019-03-19T01:37:49.176Z,11.72
2019-03-19T01:40:18.705Z,11.66
2019-03-19T01:42:48.269Z,11.58
2019-03-19T01:45:17.780Z,11.57
2019-03-19T01:47:47.261Z,11.46
2019-03-19T01:50:16.855Z,11.43
2019-03-19T01:52:46.337Z,11.36
2019-03-19T01:55:15.988Z,11.28
2019-03-19T01:57:45.472Z,11.27
2019-03-19T02:00:15.867Z,11.18
2019-03-19T02:02:45.376Z,11.11
2019-03-19T02:05:14.872Z,11.08
2019-03-19T02:07:44.471Z,11.00
2019-03-19T02:10:14.047Z,10.93
2019-03-19T02:12:43.750Z,10.80
2019-03-19T02:15:13.455Z,10.72
2019-03-19T02:17:42.976Z,10.63
2019-03-19T02:20:13.048Z,10.60
2019-03-19T02:22:42.581Z,10.57
2019-03-19T02:25:12.131Z,10.52
2019-03-19T02:27:41.595Z,10.54
2019-03-19T02:30:11.880Z,10.49
2019-03-19T02:32:41.361Z,10.52
2019-03-19T02:35:11.203Z,10.46
2019-03-19T02:37:40.777Z,10.45
2019-03-19T02:40:10.304Z,10.43
2019-03-19T02:42:39.796Z,10.36
2019-03-19T02:45:09.809Z,10.33
2019-03-19T02:47:39.318Z,10.28
2019-03-19T02:50:09.439Z,10.19
2019-03-19T02:52:38.931Z,10.17
2019-03-19T02:55:08.954Z,10.09
2019-03-19T02:57:38.461Z,10.02
2019-03-19T03:00:08.369Z,9.93
2019-03-19T03:02:37.847Z,9.89
2019-03-19T03:05:08.716Z,9.76
2019-03-19T03:07:38.221Z,9.69
2019-03-19T03:10:08.696Z,9.59
2019-03-19T03:12:38.154Z,9.49
2019-03-19T03:15:07.963Z,9.31
2019-03-19T03:17:37.442Z,9.21
2019-03-19T03:20:07.337Z,9.10
2019-03-19T03:22:36.808Z,9.04
2019-03-19T03:25:07.165Z,8.96
2019-03-19T03:27:36.679Z,8.87
2019-03-19T03:30:07.768Z,8.85
2019-03-19T03:32:37.220Z,8.82
2019-03-19T03:35:07.309Z,8.82
2019-03-19T03:37:36.818Z,8.79
2019-03-19T03:40:07.452Z,8.68
2019-03-19T03:42:37.024Z,8.70
2019-03-19T03:45:07.102Z,8.75
2019-03-19T03:47:36.600Z,8.75
2019-03-19T03:50:06.703Z,8.77
2019-03-19T03:52:36.157Z,8.81
2019-03-19T03:55:05.940Z,8.69
2019-03-19T03:57:35.423Z,8.66
2019-03-19T04:00:05.645Z,8.67
2019-03-19T04:02:35.160Z,8.63
2019-03-19T04:05:05.194Z,8.62
2019-03-19T04:07:34.644Z,8.62
2019-03-19T04:10:04.788Z,8.57
2019-03-19T04:12:34.357Z,8.51
2019-03-19T04:15:03.963Z,8.47
2019-03-19T04:17:33.476Z,8.55
2019-03-19T04:20:02.974Z,8.52
2019-03-19T04:22:32.441Z,8.55
2019-03-19T04:25:01.879Z,8.46
2019-03-19T04:27:31.369Z,8.44
2019-03-19T04:30:00.851Z,8.40
2019-03-19T04:32:30.346Z,8.40
2019-03-19T04:34:59.836Z,8.41
2019-03-19T04:37:29.339Z,8.35
2019-03-19T04:39:58.828Z,8.33
2019-03-19T04:42:28.311Z,8.35
2019-03-19T04:44:57.812Z,8.35
2019-03-19T04:47:27.330Z,8.32
2019-03-19T04:49:56.844Z,8.24
2019-03-19T04:52:26.304Z,8.24
2019-03-19T04:54:55.812Z,8.24
2019-03-19T04:57:27.003Z,8.20
2019-03-19T04:59:58.948Z,8.14
2019-03-19T05:02:27.768Z,8.22
2019-03-19T05:04:57.249Z,8.28
2019-03-19T05:07:26.764Z,8.37
2019-03-19T05:09:56.235Z,8.44
2019-03-19T05:12:25.715Z,8.42
2019-03-19T05:14:55.235Z,8.39
2019-03-19T05:17:24.728Z,8.41
2019-03-19T05:19:54.250Z,8.38
2019-03-19T05:22:23.765Z,8.40
2019-03-19T05:24:53.274Z,8.32
2019-03-19T05:27:22.771Z,8.28
2019-03-19T05:29:52.337Z,8.29
2019-03-19T05:32:21.841Z,8.29
2019-03-19T05:34:51.326Z,8.32
2019-03-19T05:37:20.876Z,8.38
2019-03-19T05:39:50.375Z,8.40
2019-03-19T05:42:19.838Z,8.48
2019-03-19T05:44:49.373Z,8.49
2019-03-19T05:47:18.878Z,8.45
2019-03-19T05:49:48.388Z,8.51
2019-03-19T05:52:17.889Z,8.58
2019-03-19T05:54:47.388Z,8.59
2019-03-19T05:57:16.898Z,8.69
2019-03-19T05:59:46.398Z,8.79
2019-03-19T06:02:15.876Z,8.77
2019-03-19T06:04:45.333Z,8.80
2019-03-19T06:07:14.835Z,8.71
2019-03-19T06:09:44.342Z,8.80
2019-03-19T06:12:13.808Z,8.82
2019-03-19T06:14:43.318Z,8.94
2019-03-19T06:17:12.831Z,8.97
2019-03-19T06:19:42.339Z,9.04
2019-03-19T06:22:11.933Z,9.03
2019-03-19T06:24:41.603Z,8.96
2019-03-19T06:27:11.106Z,8.93
2019-03-19T06:29:40.613Z,8.92
2019-03-19T06:32:10.117Z,8.98
2019-03-19T06:34:39.642Z,9.18
2019-03-19T06:37:09.247Z,9.18
2019-03-19T06:39:38.780Z,9.20
2019-03-19T06:42:11.107Z,9.24
2019-03-19T06:44:40.609Z,9.38
2019-03-19T06:47:10.119Z,9.54
2019-03-19T06:49:39.673Z,9.56
2019-03-19T06:52:09.174Z,9.61
2019-03-19T06:54:38.659Z,9.67
2019-03-19T06:57:08.195Z,9.81
2019-03-19T06:59:37.713Z,9.89
2019-03-19T07:02:07.318Z,9.96
2019-03-19T07:04:36.800Z,9.97
2019-03-19T07:07:06.330Z,9.82
2019-03-19T07:09:35.833Z,9.90
2019-03-19T07:12:05.369Z,9.92
2019-03-19T07:14:34.964Z,9.87
2019-03-19T07:17:04.485Z,9.91
2019-03-19T07:19:34.030Z,9.99
2019-03-19T07:22:03.718Z,10.17
2019-03-19T07:24:33.272Z,10.27
2019-03-19T07:27:02.806Z,10.24
2019-03-19T07:29:32.311Z,10.22
2019-03-19T07:32:01.855Z,10.18
2019-03-19T07:37:21.022Z,10.30
2019-03-19T07:39:50.565Z,10.42
2019-03-19T07:42:20.137Z,10.45
2019-03-19T07:44:49.671Z,10.46
2019-03-19T07:47:19.209Z,10.59
2019-03-19T07:49:48.731Z,10.69
2019-03-19T07:52:18.249Z,10.87
2019-03-19T07:54:47.756Z,10.90
2019-03-19T07:57:17.239Z,11.00
2019-03-19T07:59:46.707Z,11.02
2019-03-19T08:02:16.224Z,11.06
2019-03-19T08:04:45.706Z,11.17
2019-03-19T08:07:15.230Z,11.28
2019-03-19T08:09:44.750Z,11.22
2019-03-19T08:12:14.269Z,11.21
2019-03-19T08:14:43.775Z,11.14
2019-03-19T08:17:13.288Z,11.14
2019-03-19T08:19:42.767Z,11.22
2019-03-19T08:22:12.269Z,11.31
2019-03-19T08:24:41.779Z,11.22
2019-03-19T08:27:11.247Z,11.23
2019-03-19T08:29:40.741Z,11.24
2019-03-19T08:32:10.244Z,11.26
2019-03-19T08:34:39.689Z,11.17
2019-03-19T08:39:58.809Z,11.33
2019-03-19T08:42:28.306Z,11.60
2019-03-19T08:44:57.816Z,11.69
2019-03-19T08:47:27.323Z,11.81
2019-03-19T08:49:56.849Z,11.90
2019-03-19T08:52:26.311Z,12.06
2019-03-19T08:54:55.848Z,11.97
2019-03-19T08:57:25.324Z,11.88
2019-03-19T08:59:57.066Z,11.98
2019-03-19T09:02:26.038Z,12.00
2019-03-19T09:04:55.541Z,12.13
2019-03-19T09:07:25.018Z,12.39
2019-03-19T09:09:54.553Z,12.47
2019-03-19T09:12:24.076Z,12.48
2019-03-19T09:14:53.559Z,12.59
2019-03-19T09:17:23.087Z,12.71
2019-03-19T09:19:52.588Z,12.53
2019-03-19T09:22:22.918Z,12.48
2019-03-19T09:24:52.457Z,12.57
2019-03-19T09:27:21.971Z,12.68
2019-03-19T09:29:51.452Z,12.79
2019-03-19T09:32:20.958Z,12.80
2019-03-19T09:34:50.459Z,12.79
2019-03-19T09:37:20.004Z,12.82
2019-03-19T09:39:49.529Z,12.98
2019-03-19T09:42:19.034Z,13.04
2019-03-19T09:44:58.163Z,13.18
2019-03-19T09:47:19.851Z,13.18
2019-03-19T09:49:49.375Z,13.23
2019-03-19T09:52:18.862Z,13.23
2019-03-19T09:54:48.420Z,13.34
2019-03-19T09:57:17.919Z,13.34
2019-03-19T09:59:47.403Z,13.35
2019-03-19T10:02:17.445Z,13.55
2019-03-19T10:04:47.669Z,13.61
2019-03-19T10:07:17.200Z,13.57
2019-03-19T10:09:46.726Z,13.53
2019-03-19T10:12:17.451Z,13.59
2019-03-19T10:14:46.959Z,13.69
2019-03-19T10:17:16.471Z,13.73
2019-03-19T10:19:45.982Z,13.82
2019-03-19T10:22:15.483Z,13.91
2019-03-19T10:24:44.991Z,13.89
2019-03-19T10:27:16.912Z,13.98
2019-03-19T10:32:37.902Z,14.16
2019-03-19T10:35:07.702Z,14.19
2019-03-19T10:40:25.879Z,14.36
2019-03-19T10:42:55.389Z,14.46
2019-03-19T10:45:24.965Z,14.49
2019-03-19T10:47:54.477Z,14.44
2019-03-19T10:50:24.178Z,14.53
2019-03-19T10:52:53.746Z,14.59
2019-03-19T10:55:23.258Z,14.75
2019-03-19T10:57:52.792Z,14.83
2019-03-19T11:00:22.983Z,14.88
2019-03-19T11:03:05.025Z,14.91
2019-03-19T11:05:34.448Z,14.92
2019-03-19T11:08:03.985Z,15.05
2019-03-19T11:10:33.625Z,15.12
2019-03-19T11:13:03.170Z,15.20
2019-03-19T11:15:32.960Z,15.31
2019-03-19T11:18:02.499Z,15.39
2019-03-19T11:20:32.069Z,15.51
2019-03-19T11:23:01.616Z,15.55
2019-03-19T11:25:32.208Z,15.53
2019-03-19T11:28:01.788Z,15.53
2019-03-19T11:30:31.289Z,15.62
2019-03-19T11:33:00.778Z,15.61
2019-03-19T11:35:30.465Z,15.63
2019-03-19T11:38:00.039Z,15.80
2019-03-19T11:40:29.592Z,15.86
2019-03-19T11:42:59.136Z,15.90
2019-03-19T11:45:28.776Z,15.90
2019-03-19T11:47:58.357Z,15.99
2019-03-19T11:50:27.926Z,16.08
2019-03-19T11:52:57.458Z,16.14
2019-03-19T11:55:27.139Z,16.15
2019-03-19T11:57:58.030Z,16.24
2019-03-19T12:00:36.669Z,16.36
2019-03-19T12:03:14.935Z,16.48
2019-03-19T12:05:38.142Z,16.46
2019-03-19T12:08:08.160Z,16.51
2019-03-19T12:10:37.774Z,16.53
2019-03-19T12:13:07.347Z,16.59
2019-03-19T12:15:36.959Z,16.66
2019-03-19T12:18:06.682Z,16.70
2019-03-19T12:20:36.241Z,16.77
2019-03-19T12:23:05.917Z,16.89
2019-03-19T12:25:35.437Z,16.97
2019-03-19T12:28:05.365Z,17.10
2019-03-19T12:30:34.850Z,17.02
2019-03-19T12:33:04.381Z,16.99
2019-03-19T12:35:33.902Z,17.05
2019-03-19T12:38:03.467Z,17.22
2019-03-19T12:40:37.319Z,17.31
2019-03-19T12:43:05.521Z,17.41
2019-03-19T12:45:35.081Z,17.49
2019-03-19T12:48:04.795Z,17.43
2019-03-19T12:50:34.346Z,17.49
2019-03-19T12:53:03.842Z,17.51
2019-03-19T12:55:35.213Z,17.60
2019-03-19T12:58:04.785Z,17.59
2019-03-19T13:00:35.080Z,17.57
2019-03-19T13:03:04.856Z,17.64
2019-03-19T13:05:34.410Z,17.59
2019-03-19T13:08:03.941Z,17.62
2019-03-19T13:10:33.431Z,17.66
2019-03-19T13:13:03.007Z,17.71
2019-03-19T13:15:32.565Z,17.79
2019-03-19T13:18:02.019Z,17.79
2019-03-19T13:20:31.491Z,17.87
2019-03-19T13:23:00.980Z,17.82
2019-03-19T13:25:30.461Z,17.82
2019-03-19T13:28:00.017Z,17.88
2019-03-19T13:30:29.510Z,17.90
2019-03-19T13:32:59.009Z,17.90
2019-03-19T13:35:28.534Z,17.89
2019-03-19T13:37:58.021Z,17.89
2019-03-19T13:40:27.553Z,17.93
2019-03-19T13:42:57.056Z,18.08
2019-03-19T13:45:26.561Z,18.11
2019-03-19T13:47:56.048Z,18.08
2019-03-19T13:50:25.552Z,18.01
2019-03-19T13:52:55.065Z,17.94
2019-03-19T13:55:24.657Z,17.97
2019-03-19T13:57:54.190Z,18.10
2019-03-19T14:00:23.652Z,18.12
2019-03-19T14:02:53.166Z,18.09
2019-03-19T14:05:22.675Z,18.07
2019-03-19T14:07:52.153Z,18.17
2019-03-19T14:10:21.921Z,18.17
2019-03-19T14:12:51.453Z,18.15
2019-03-19T14:15:20.987Z,18.22
2019-03-19T14:17:50.564Z,18.17
2019-03-19T14:20:20.078Z,18.20
2019-03-19T14:22:49.591Z,18.17
2019-03-19T14:25:19.091Z,18.15
2019-03-19T14:27:48.571Z,18.18
2019-03-19T14:30:18.406Z,18.24
2019-03-19T14:32:48.138Z,18.32
2019-03-19T14:35:17.721Z,18.17
2019-03-19T14:37:47.209Z,18.04
2019-03-19T14:40:17.669Z,18.01
2019-03-19T14:42:47.206Z,17.96
2019-03-19T14:45:17.223Z,17.92
2019-03-19T14:47:46.741Z,17.87
2019-03-19T14:50:16.471Z,17.78
2019-03-19T14:52:45.949Z,17.68
2019-03-19T14:55:15.557Z,17.53
2019-03-19T14:57:45.067Z,17.37
2019-03-19T15:00:15.635Z,17.28
2019-03-19T15:02:45.160Z,17.25
2019-03-19T15:05:14.970Z,17.19
2019-03-19T15:07:44.589Z,17.16
2019-03-19T15:10:15.244Z,17.10
2019-03-19T15:12:44.831Z,17.02
2019-03-19T15:15:15.424Z,16.98
2019-03-19T15:17:44.905Z,16.95
2019-03-19T15:20:16.575Z,16.89
2019-03-19T15:22:46.263Z,16.91
2019-03-19T15:25:15.856Z,16.92
2019-03-19T15:27:45.380Z,16.88
2019-03-19T15:30:15.560Z,16.91
2019-03-19T15:32:45.218Z,17.00
2019-03-19T15:35:14.857Z,17.01
2019-03-19T15:38:02.413Z,17.05
2019-03-19T15:40:32.019Z,17.07
2019-03-19T15:43:01.505Z,17.12
2019-03-19T15:45:31.103Z,17.15
2019-03-19T15:48:00.629Z,17.18
2019-03-19T15:50:30.196Z,17.19
2019-03-19T15:52:59.756Z,17.21
2019-03-19T15:55:29.245Z,17.26
2019-03-19T15:57:58.793Z,17.29
2019-03-19T16:00:28.449Z,17.12
2019-03-19T16:02:57.911Z,17.01
2019-03-19T16:05:27.411Z,16.95
2019-03-19T16:07:56.913Z,16.88
2019-03-19T16:10:28.253Z,16.62
2019-03-19T16:13:04.588Z,16.51
2019-03-19T16:15:34.138Z,16.35
2019-03-19T16:18:03.641Z,16.24
2019-03-19T16:20:33.151Z,16.07
2019-03-19T16:23:02.724Z,16.05
2019-03-19T16:25:32.265Z,15.90
2019-03-19T16:28:01.766Z,15.85
2019-03-19T16:30:31.244Z,15.69
2019-03-19T16:33:00.733Z,15.53
2019-03-19T16:35:30.264Z,15.52
2019-03-19T16:37:59.846Z,15.44
2019-03-19T16:40:29.387Z,15.39
2019-03-19T16:42:59.044Z,15.33
2019-03-19T16:45:28.654Z,15.30
2019-03-19T16:47:58.186Z,15.31
2019-03-19T16:50:27.729Z,15.25
2019-03-19T16:52:57.331Z,15.22
2019-03-19T16:55:26.856Z,15.18
2019-03-19T16:57:56.405Z,15.15
2019-03-19T17:00:25.939Z,15.09
2019-03-19T17:02:55.391Z,15.06
2019-03-19T17:05:24.878Z,15.01
2019-03-19T17:07:54.403Z,14.94
2019-03-19T17:10:23.945Z,14.88
2019-03-19T17:12:53.471Z,14.87
2019-03-19T17:15:22.965Z,14.84
2019-03-19T17:17:52.617Z,14.80
2019-03-19T17:20:30.054Z,14.76
2019-03-19T17:23:06.824Z,14.75
2019-03-19T17:25:36.538Z,14.70
2019-03-19T17:28:06.432Z,14.65
2019-03-19T17:30:35.947Z,14.64
2019-03-19T17:33:05.605Z,14.62
2019-03-19T17:35:35.170Z,14.62
2019-03-19T17:38:04.995Z,14.62
2019-03-19T17:40:41.211Z,14.58
2019-03-19T17:43:05.900Z,14.57
2019-03-19T17:45:35.552Z,14.55
2019-03-19T17:48:15.471Z,14.56
2019-03-19T17:50:36.440Z,14.54
2019-03-19T17:53:05.945Z,14.53
2019-03-19T17:55:35.640Z,14.51
2019-03-19T17:58:05.257Z,14.51
2019-03-19T18:00:35.508Z,14.51
2019-03-19T18:03:06.837Z,14.46
2019-03-19T18:05:36.406Z,14.41
2019-03-19T18:08:06.449Z,14.38
2019-03-19T18:10:35.992Z,14.37
2019-03-19T18:13:06.747Z,14.34
2019-03-19T18:15:36.470Z,14.32
2019-03-19T18:18:06.188Z,14.33
2019-03-19T18:20:35.761Z,14.24
2019-03-19T18:23:05.299Z,14.15
2019-03-19T18:25:34.830Z,14.09
2019-03-19T18:28:04.443Z,14.08
2019-03-19T18:30:33.986Z,14.06
2019-03-19T18:33:03.492Z,13.99
2019-03-19T18:35:32.960Z,13.94
2019-03-19T18:38:02.500Z,13.92
2019-03-19T18:40:32.065Z,13.93
2019-03-19T18:43:01.642Z,13.90
2019-03-19T18:45:31.147Z,13.87
2019-03-19T18:48:02.269Z,13.86
2019-03-19T18:50:32.502Z,13.85
2019-03-19T18:53:02.049Z,13.82
2019-03-19T18:55:39.406Z,13.81
2019-03-19T18:58:08.914Z,13.83
2019-03-19T19:00:38.416Z,13.80
2019-03-19T19:03:09.486Z,13.77
2019-03-19T19:05:38.957Z,13.74
2019-03-19T19:08:08.675Z,13.73
2019-03-19T19:10:38.181Z,13.73
2019-03-19T19:13:08.477Z,13.66
2019-03-19T19:15:38.695Z,13.54
2019-03-19T19:18:08.174Z,13.48
2019-03-19T19:20:37.683Z,13.34
2019-03-19T19:23:12.519Z,13.21
2019-03-19T19:25:42.057Z,13.12
2019-03-19T19:28:11.567Z,13.13
2019-03-19T19:30:41.139Z,13.20
2019-03-19T19:33:10.664Z,13.21
2019-03-19T19:35:40.264Z,13.27
2019-03-19T19:38:09.952Z,13.24
2019-03-19T19:40:39.765Z,13.09
2019-03-19T19:43:09.241Z,13.02
2019-03-19T19:45:38.780Z,12.94
2019-03-19T19:48:08.333Z,12.86
2019-03-19T19:50:37.886Z,12.82
2019-03-19T19:53:10.579Z,12.75
2019-03-19T19:55:40.158Z,12.67
2019-03-19T19:58:09.668Z,12.62
2019-03-19T20:00:42.254Z,12.63
2019-03-19T20:03:12.793Z,12.59
2019-03-19T20:05:42.494Z,12.60
2019-03-19T20:08:11.942Z,12.59
2019-03-19T20:10:43.743Z,12.50
2019-03-19T20:13:13.286Z,12.39
2019-03-19T20:15:48.060Z,12.36
2019-03-19T20:18:17.585Z,12.38
2019-03-19T20:20:47.103Z,12.33
2019-03-19T20:23:19.411Z,12.38
2019-03-19T20:25:50.210Z,12.41
2019-03-19T20:28:19.703Z,12.26
2019-03-19T20:30:49.214Z,12.23
2019-03-19T20:33:24.775Z,12.30
2019-03-19T20:35:49.911Z,12.33
2019-03-19T20:38:19.437Z,12.26
2019-03-19T20:40:48.962Z,12.09
2019-03-19T20:43:18.438Z,12.09
2019-03-19T20:45:49.991Z,12.06
2019-03-19T20:48:19.917Z,12.08
2019-03-19T20:50:49.416Z,12.09
2019-03-19T20:53:18.939Z,12.12
2019-03-19T20:55:48.461Z,12.14
2019-03-19T20:58:17.937Z,12.16
2019-03-19T21:00:47.429Z,12.12
2019-03-19T21:03:16.942Z,12.07
2019-03-19T21:05:46.427Z,11.98
2019-03-19T21:08:15.915Z,11.80
2019-03-19T21:10:45.460Z,11.74
2019-03-19T21:13:14.925Z,11.72
2019-03-19T21:15:44.566Z,11.65
2019-03-19T21:18:14.087Z,11.65
2019-03-19T21:20:43.560Z,11.64
2019-03-19T21:23:13.066Z,11.66
2019-03-19T21:25:42.548Z,11.58
2019-03-19T21:28:14.258Z,11.53
2019-03-19T21:30:43.302Z,11.55
2019-03-19T21:33:12.791Z,11.58
2019-03-19T21:35:42.321Z,11.57
2019-03-19T21:38:11.803Z,11.58
2019-03-19T21:40:41.326Z,11.59
2019-03-19T21:43:10.867Z,11.54
2019-03-19T21:45:40.470Z,11.51
2019-03-19T21:48:10.027Z,11.48
2019-03-19T21:50:39.527Z,11.38
2019-03-19T21:53:09.028Z,11.35
2019-03-19T21:55:38.565Z,11.28
2019-03-19T21:58:08.188Z,11.26
2019-03-19T22:00:37.722Z,11.24
2019-03-19T22:03:07.230Z,11.18
2019-03-19T22:05:36.749Z,11.13
2019-03-19T22:08:06.222Z,11.05
2019-03-19T22:10:35.756Z,10.99
2019-03-19T22:13:05.274Z,10.94
2019-03-19T22:15:34.776Z,10.86
2019-03-19T22:18:04.300Z,10.85
2019-03-19T22:20:33.802Z,10.78
2019-03-19T22:23:03.290Z,10.73
2019-03-19T22:25:32.841Z,10.68
2019-03-19T22:28:02.355Z,10.65
2019-03-19T22:30:31.907Z,10.64
2019-03-19T22:33:01.471Z,10.53
2019-03-19T22:35:30.967Z,10.51
2019-03-19T22:38:00.483Z,10.48
2019-03-19T22:40:29.990Z,10.45
2019-03-19T22:42:59.545Z,10.44
2019-03-19T22:45:29.055Z,10.47
2019-03-19T22:47:58.540Z,10.39
2019-03-19T22:50:28.274Z,10.38
2019-03-19T22:52:57.756Z,10.36
2019-03-19T22:55:29.284Z,10.31
2019-03-19T22:57:58.508Z,10.31
2019-03-19T23:00:45.932Z,10.34
2019-03-19T23:03:15.447Z,10.36
2019-03-19T23:05:44.963Z,10.31
2019-03-19T23:08:14.511Z,10.32
2019-03-19T23:10:43.990Z,10.29
2019-03-19T23:13:13.996Z,10.27
2019-03-19T23:15:43.562Z,10.27
2019-03-19T23:18:13.044Z,10.19
2019-03-19T23:20:42.518Z,10.15
2019-03-19T23:23:12.010Z,10.11
2019-03-19T23:25:41.526Z,10.11
2019-03-19T23:28:11.043Z,10.06
2019-03-19T23:30:40.557Z,10.02
2019-03-19T23:33:10.091Z,9.96
2019-03-19T23:35:39.622Z,9.95
2019-03-19T23:38:09.121Z,9.94
2019-03-19T23:40:38.591Z,9.92
2019-03-19T23:43:08.078Z,9.88
2019-03-19T23:45:37.582Z,9.87
2019-03-19T23:48:07.102Z,9.86
2019-03-19T23:50:36.578Z,9.89
2019-03-19T23:53:06.069Z,9.94
2019-03-19T23:55:35.703Z,10.00
2019-03-19T23:58:05.195Z,9.99
